sensor_id;sensor_type;location;lat;lon;timestamp;temperature;humidity
4050;DHT22;2039;50.894;6.888;2023-01-01T00:01:54;14.90;1.00
4050;DHT22;2039;50.894;6.888;2023-01-01T00:04:20;14.90;1.00
4050;DHT22;2039;50.894;6.888;2023-01-01T00:06:48;14.90;1.00
4050;DHT22;2039;50.894;6.888;2023-01-01T00:09:14;14.80;1.00
4050;DHT22;2039;50.894;6.888;2023-01-01T00:12:15;14.80;1.00
4050;DHT22;2039;50.894;6.888;2023-01-01T00:14:40;14.80;1.00
4050;DHT22;2039;50.894;6.888;2023-01-01T00:17:09;14.80;1.00
4050;DHT22;2039;50.894;6.888;2023-01-01T00:19:34;14.80;1.00
4050;DHT22;2039;50.894;6.888;2023-01-01T00:22:03;14.70;1.00
4050;DHT22;2039;50.894;6.888;2023-01-01T00:24:29;14.70;1.00
4050;DHT22;2039;50.894;6.888;2023-01-01T00:26:54;14.70;1.00
4050;DHT22;2039;50.894;6.888;2023-01-01T00:29:22;14.70;1.00
4050;DHT22;2039;50.894;6.888;2023-01-01T00:31:48;14.60;1.00
4050;DHT22;2039;50.894;6.888;2023-01-01T00:34:13;14.60;1.00
4050;DHT22;2039;50.894;6.888;2023-01-01T00:36:39;14.60;1.00
4050;DHT22;2039;50.894;6.888;2023-01-01T00:39:05;14.60;1.00
4050;DHT22;2039;50.894;6.888;2023-01-01T00:41:33;14.60;1.00
4050;DHT22;2039;50.894;6.888;2023-01-01T00:43:59;14.70;1.00
4050;DHT22;2039;50.894;6.888;2023-01-01T00:46:24;14.60;1.00
4050;DHT22;2039;50.894;6.888;2023-01-01T00:48:50;14.60;1.00
4050;DHT22;2039;50.894;6.888;2023-01-01T00:51:16;14.60;1.00
4050;DHT22;2039;50.894;6.888;2023-01-01T00:53:41;14.60;1.00
4050;DHT22;2039;50.894;6.888;2023-01-01T00:56:07;14.60;1.00
4050;DHT22;2039;50.894;6.888;2023-01-01T00:58:33;14.60;1.00
4050;DHT22;2039;50.894;6.888;2023-01-01T01:01:02;14.70;1.00
4050;DHT22;2039;50.894;6.888;2023-01-01T01:03:28;14.70;1.00
4050;DHT22;2039;50.894;6.888;2023-01-01T01:06:06;14.60;1.00
4050;DHT22;2039;50.894;6.888;2023-01-01T01:08:37;14.60;1.00
4050;DHT22;2039;50.894;6.888;2023-01-01T01:11:15;14.60;1.00
4050;DHT22;2039;50.894;6.888;2023-01-01T01:13:46;14.60;1.00
4050;DHT22;2039;50.894;6.888;2023-01-01T01:16:24;14.60;1.00
4050;DHT22;2039;50.894;6.888;2023-01-01T01:18:51;14.60;1.00
4050;DHT22;2039;50.894;6.888;2023-01-01T01:21:18;14.50;1.00
4050;DHT22;2039;50.894;6.888;2023-01-01T01:23:45;14.40;1.00
4050;DHT22;2039;50.894;6.888;2023-01-01T01:26:14;14.40;1.00
4050;DHT22;2039;50.894;6.888;2023-01-01T01:28:40;14.40;1.00
4050;DHT22;2039;50.894;6.888;2023-01-01T01:31:09;14.40;1.00
4050;DHT22;2039;50.894;6.888;2023-01-01T01:33:36;14.40;1.00
4050;DHT22;2039;50.894;6.888;2023-01-01T01:36:03;14.40;1.00
4050;DHT22;2039;50.894;6.888;2023-01-01T01:38:32;14.40;1.00
4050;DHT22;2039;50.894;6.888;2023-01-01T01:40:57;14.40;1.00
4050;DHT22;2039;50.894;6.888;2023-01-01T01:43:45;14.40;1.00
4050;DHT22;2039;50.894;6.888;2023-01-01T01:48:49;14.30;1.00
4050;DHT22;2039;50.894;6.888;2023-01-01T01:51:22;14.30;1.00
4050;DHT22;2039;50.894;6.888;2023-01-01T01:53:53;14.30;1.00
4050;DHT22;2039;50.894;6.888;2023-01-01T01:56:51;14.30;1.00
4050;DHT22;2039;50.894;6.888;2023-01-01T01:59:20;14.30;1.00
4050;DHT22;2039;50.894;6.888;2023-01-01T02:01:47;14.20;1.00
4050;DHT22;2039;50.894;6.888;2023-01-01T02:04:12;14.20;1.00
4050;DHT22;2039;50.894;6.888;2023-01-01T02:06:39;14.20;1.00
4050;DHT22;2039;50.894;6.888;2023-01-01T02:09:11;14.20;1.00
4050;DHT22;2039;50.894;6.888;2023-01-01T02:11:37;14.20;1.00
4050;DHT22;2039;50.894;6.888;2023-01-01T02:14:03;14.20;1.00
4050;DHT22;2039;50.894;6.888;2023-01-01T02:16:43;14.20;1.00
4050;DHT22;2039;50.894;6.888;2023-01-01T02:30:22;14.20;1.00
4050;DHT22;2039;50.894;6.888;2023-01-01T02:32:49;14.20;1.00
4050;DHT22;2039;50.894;6.888;2023-01-01T02:35:23;14.20;1.00
4050;DHT22;2039;50.894;6.888;2023-01-01T02:38:28;14.20;1.00
4050;DHT22;2039;50.894;6.888;2023-01-01T02:41:01;14.20;1.00
4050;DHT22;2039;50.894;6.888;2023-01-01T02:43:28;14.20;1.00
4050;DHT22;2039;50.894;6.888;2023-01-01T02:45:54;14.20;1.00
4050;DHT22;2039;50.894;6.888;2023-01-01T02:56:47;14.40;1.00
4050;DHT22;2039;50.894;6.888;2023-01-01T03:02:45;14.40;1.00
4050;DHT22;2039;50.894;6.888;2023-01-01T03:05:24;14.50;1.00
4050;DHT22;2039;50.894;6.888;2023-01-01T03:07:58;14.40;1.00
4050;DHT22;2039;50.894;6.888;2023-01-01T03:10:58;14.40;1.00
4050;DHT22;2039;50.894;6.888;2023-01-01T03:19:15;14.40;1.00
4050;DHT22;2039;50.894;6.888;2023-01-01T03:21:54;14.40;1.00
4050;DHT22;2039;50.894;6.888;2023-01-01T03:24:29;14.40;1.00
4050;DHT22;2039;50.894;6.888;2023-01-01T03:29:25;14.40;1.00
4050;DHT22;2039;50.894;6.888;2023-01-01T03:31:55;14.40;1.00
4050;DHT22;2039;50.894;6.888;2023-01-01T03:34:29;14.50;1.00
4050;DHT22;2039;50.894;6.888;2023-01-01T03:36:57;14.50;1.00
4050;DHT22;2039;50.894;6.888;2023-01-01T03:39:40;14.50;1.00
4050;DHT22;2039;50.894;6.888;2023-01-01T03:45:02;14.50;1.00
4050;DHT22;2039;50.894;6.888;2023-01-01T03:47:30;14.50;1.00
4050;DHT22;2039;50.894;6.888;2023-01-01T03:49:56;14.50;1.00
4050;DHT22;2039;50.894;6.888;2023-01-01T03:55:44;14.50;1.00
4050;DHT22;2039;50.894;6.888;2023-01-01T03:58:12;14.50;1.00
4050;DHT22;2039;50.894;6.888;2023-01-01T04:00:53;14.50;1.00
4050;DHT22;2039;50.894;6.888;2023-01-01T04:03:25;14.50;1.00
4050;DHT22;2039;50.894;6.888;2023-01-01T04:05:52;14.50;1.00
4050;DHT22;2039;50.894;6.888;2023-01-01T04:08:18;14.50;1.00
4050;DHT22;2039;50.894;6.888;2023-01-01T04:10:47;14.50;1.00
4050;DHT22;2039;50.894;6.888;2023-01-01T04:13:15;14.50;1.00
4050;DHT22;2039;50.894;6.888;2023-01-01T04:15:41;14.60;1.00
4050;DHT22;2039;50.894;6.888;2023-01-01T04:18:07;14.50;1.00
4050;DHT22;2039;50.894;6.888;2023-01-01T04:20:33;14.60;1.00
4050;DHT22;2039;50.894;6.888;2023-01-01T04:23:00;14.60;1.00
4050;DHT22;2039;50.894;6.888;2023-01-01T04:25:26;14.50;1.00
4050;DHT22;2039;50.894;6.888;2023-01-01T04:27:52;14.50;1.00
4050;DHT22;2039;50.894;6.888;2023-01-01T04:30:18;14.60;1.00
4050;DHT22;2039;50.894;6.888;2023-01-01T04:32:44;14.50;1.00
4050;DHT22;2039;50.894;6.888;2023-01-01T04:35:11;14.50;1.00
4050;DHT22;2039;50.894;6.888;2023-01-01T04:37:39;14.50;1.00
4050;DHT22;2039;50.894;6.888;2023-01-01T04:40:07;14.50;1.00
4050;DHT22;2039;50.894;6.888;2023-01-01T04:42:33;14.50;1.00
4050;DHT22;2039;50.894;6.888;2023-01-01T04:44:59;14.50;1.00
4050;DHT22;2039;50.894;6.888;2023-01-01T04:47:25;14.50;1.00
4050;DHT22;2039;50.894;6.888;2023-01-01T04:49:54;14.50;1.00
4050;DHT22;2039;50.894;6.888;2023-01-01T04:52:20;14.60;1.00
4050;DHT22;2039;50.894;6.888;2023-01-01T04:54:45;14.60;1.00
4050;DHT22;2039;50.894;6.888;2023-01-01T04:57:11;14.60;1.00
4050;DHT22;2039;50.894;6.888;2023-01-01T04:59:37;14.50;1.00
4050;DHT22;2039;50.894;6.888;2023-01-01T05:02:03;14.50;1.00
4050;DHT22;2039;50.894;6.888;2023-01-01T05:04:28;14.50;1.00
4050;DHT22;2039;50.894;6.888;2023-01-01T05:06:54;14.50;1.00
4050;DHT22;2039;50.894;6.888;2023-01-01T05:09:20;14.50;1.00
4050;DHT22;2039;50.894;6.888;2023-01-01T05:11:46;14.50;1.00
4050;DHT22;2039;50.894;6.888;2023-01-01T05:14:12;14.50;1.00
4050;DHT22;2039;50.894;6.888;2023-01-01T05:16:39;14.60;1.00
4050;DHT22;2039;50.894;6.888;2023-01-01T05:19:05;14.50;1.00
4050;DHT22;2039;50.894;6.888;2023-01-01T05:21:37;14.50;1.00
4050;DHT22;2039;50.894;6.888;2023-01-01T05:24:05;14.50;1.00
4050;DHT22;2039;50.894;6.888;2023-01-01T05:26:34;14.50;1.00
4050;DHT22;2039;50.894;6.888;2023-01-01T05:29:00;14.40;1.00
4050;DHT22;2039;50.894;6.888;2023-01-01T05:31:29;14.40;1.00
4050;DHT22;2039;50.894;6.888;2023-01-01T05:33:56;14.40;1.00
4050;DHT22;2039;50.894;6.888;2023-01-01T05:36:29;14.40;1.00
4050;DHT22;2039;50.894;6.888;2023-01-01T05:38:55;14.40;1.00
4050;DHT22;2039;50.894;6.888;2023-01-01T05:41:22;14.40;1.00
4050;DHT22;2039;50.894;6.888;2023-01-01T05:43:48;14.40;1.00
4050;DHT22;2039;50.894;6.888;2023-01-01T05:46:18;14.30;1.00
4050;DHT22;2039;50.894;6.888;2023-01-01T05:48:51;14.30;1.00
4050;DHT22;2039;50.894;6.888;2023-01-01T05:51:22;14.30;1.00
4050;DHT22;2039;50.894;6.888;2023-01-01T05:53:56;14.30;1.00
4050;DHT22;2039;50.894;6.888;2023-01-01T05:56:22;14.30;1.00
4050;DHT22;2039;50.894;6.888;2023-01-01T05:58:48;14.30;1.00
4050;DHT22;2039;50.894;6.888;2023-01-01T06:03:51;14.30;1.00
4050;DHT22;2039;50.894;6.888;2023-01-01T06:06:19;14.30;1.00
4050;DHT22;2039;50.894;6.888;2023-01-01T06:09:00;14.30;1.00
4050;DHT22;2039;50.894;6.888;2023-01-01T06:11:27;14.40;1.00
4050;DHT22;2039;50.894;6.888;2023-01-01T06:13:55;14.40;1.00
4050;DHT22;2039;50.894;6.888;2023-01-01T06:16:21;14.30;1.00
4050;DHT22;2039;50.894;6.888;2023-01-01T06:18:47;14.30;1.00
4050;DHT22;2039;50.894;6.888;2023-01-01T06:21:22;14.30;1.00
4050;DHT22;2039;50.894;6.888;2023-01-01T06:23:49;14.30;1.00
4050;DHT22;2039;50.894;6.888;2023-01-01T06:26:23;14.30;1.00
4050;DHT22;2039;50.894;6.888;2023-01-01T06:28:49;14.30;1.00
4050;DHT22;2039;50.894;6.888;2023-01-01T06:31:17;14.30;1.00
4050;DHT22;2039;50.894;6.888;2023-01-01T06:33:43;14.30;1.00
4050;DHT22;2039;50.894;6.888;2023-01-01T06:36:11;14.30;1.00
4050;DHT22;2039;50.894;6.888;2023-01-01T06:38:43;14.30;1.00
4050;DHT22;2039;50.894;6.888;2023-01-01T06:41:15;14.30;1.00
4050;DHT22;2039;50.894;6.888;2023-01-01T06:43:41;14.40;1.00
4050;DHT22;2039;50.894;6.888;2023-01-01T06:46:19;14.30;1.20
4050;DHT22;2039;50.894;6.888;2023-01-01T06:48:51;14.30;3.40
4050;DHT22;2039;50.894;6.888;2023-01-01T06:51:19;14.30;5.30
4050;DHT22;2039;50.894;6.888;2023-01-01T06:53:46;14.30;6.20
4050;DHT22;2039;50.894;6.888;2023-01-01T06:56:12;14.30;6.20
4050;DHT22;2039;50.894;6.888;2023-01-01T06:58:38;14.30;6.80
4050;DHT22;2039;50.894;6.888;2023-01-01T07:01:09;14.30;7.00
4050;DHT22;2039;50.894;6.888;2023-01-01T07:03:36;14.40;7.10
4050;DHT22;2039;50.894;6.888;2023-01-01T07:06:02;14.30;7.80
4050;DHT22;2039;50.894;6.888;2023-01-01T07:08:27;14.40;8.20
4050;DHT22;2039;50.894;6.888;2023-01-01T07:10:53;14.40;7.90
4050;DHT22;2039;50.894;6.888;2023-01-01T07:13:22;14.40;10.80
4050;DHT22;2039;50.894;6.888;2023-01-01T07:15:48;14.40;9.80
4050;DHT22;2039;50.894;6.888;2023-01-01T07:18:14;14.40;9.70
4050;DHT22;2039;50.894;6.888;2023-01-01T07:20:40;14.40;11.40
4050;DHT22;2039;50.894;6.888;2023-01-01T07:23:05;14.40;11.20
4050;DHT22;2039;50.894;6.888;2023-01-01T07:25:31;14.40;10.10
4050;DHT22;2039;50.894;6.888;2023-01-01T07:27:56;14.40;11.50
4050;DHT22;2039;50.894;6.888;2023-01-01T07:30:22;14.50;10.40
4050;DHT22;2039;50.894;6.888;2023-01-01T07:32:56;14.40;11.60
4050;DHT22;2039;50.894;6.888;2023-01-01T07:35:21;14.50;10.80
4050;DHT22;2039;50.894;6.888;2023-01-01T07:37:47;14.40;11.40
4050;DHT22;2039;50.894;6.888;2023-01-01T07:40:13;14.40;12.00
4050;DHT22;2039;50.894;6.888;2023-01-01T07:42:38;14.40;14.10
4050;DHT22;2039;50.894;6.888;2023-01-01T07:45:04;14.40;15.20
4050;DHT22;2039;50.894;6.888;2023-01-01T07:47:30;14.40;15.90
4050;DHT22;2039;50.894;6.888;2023-01-01T07:49:57;14.40;15.50
4050;DHT22;2039;50.894;6.888;2023-01-01T07:52:23;14.40;15.20
4050;DHT22;2039;50.894;6.888;2023-01-01T07:54:48;14.40;16.10
4050;DHT22;2039;50.894;6.888;2023-01-01T07:57:14;14.40;18.60
4050;DHT22;2039;50.894;6.888;2023-01-01T07:59:40;14.40;19.30
4050;DHT22;2039;50.894;6.888;2023-01-01T08:02:06;14.50;18.60
4050;DHT22;2039;50.894;6.888;2023-01-01T08:04:31;14.40;20.70
4050;DHT22;2039;50.894;6.888;2023-01-01T08:06:57;14.40;21.00
4050;DHT22;2039;50.894;6.888;2023-01-01T08:09:23;14.50;22.40
4050;DHT22;2039;50.894;6.888;2023-01-01T08:11:48;14.40;22.50
4050;DHT22;2039;50.894;6.888;2023-01-01T08:14:17;14.40;22.60
4050;DHT22;2039;50.894;6.888;2023-01-01T08:16:42;14.40;21.60
4050;DHT22;2039;50.894;6.888;2023-01-01T08:19:08;14.40;22.70
4050;DHT22;2039;50.894;6.888;2023-01-01T08:21:34;14.50;22.40
4050;DHT22;2039;50.894;6.888;2023-01-01T08:23:59;14.50;24.10
4050;DHT22;2039;50.894;6.888;2023-01-01T08:26:30;14.50;25.60
4050;DHT22;2039;50.894;6.888;2023-01-01T08:28:57;14.50;26.20
4050;DHT22;2039;50.894;6.888;2023-01-01T08:31:23;14.40;28.50
4050;DHT22;2039;50.894;6.888;2023-01-01T08:33:49;14.40;27.80
4050;DHT22;2039;50.894;6.888;2023-01-01T08:36:15;14.40;31.80
4050;DHT22;2039;50.894;6.888;2023-01-01T08:38:42;14.30;33.00
4050;DHT22;2039;50.894;6.888;2023-01-01T08:41:08;14.30;36.20
4050;DHT22;2039;50.894;6.888;2023-01-01T08:43:34;14.30;38.40
4050;DHT22;2039;50.894;6.888;2023-01-01T08:45:59;14.30;40.00
4050;DHT22;2039;50.894;6.888;2023-01-01T08:48:25;14.30;41.30
4050;DHT22;2039;50.894;6.888;2023-01-01T08:50:55;14.20;42.70
4050;DHT22;2039;50.894;6.888;2023-01-01T08:53:21;14.20;45.40
4050;DHT22;2039;50.894;6.888;2023-01-01T08:56:05;14.20;47.40
4050;DHT22;2039;50.894;6.888;2023-01-01T08:58:33;14.20;49.20
4050;DHT22;2039;50.894;6.888;2023-01-01T09:00:59;14.20;52.30
4050;DHT22;2039;50.894;6.888;2023-01-01T09:03:25;14.20;53.10
4050;DHT22;2039;50.894;6.888;2023-01-01T09:05:51;14.20;55.30
4050;DHT22;2039;50.894;6.888;2023-01-01T09:08:18;14.20;56.50
4050;DHT22;2039;50.894;6.888;2023-01-01T09:10:44;14.20;55.90
4050;DHT22;2039;50.894;6.888;2023-01-01T09:13:11;14.20;57.40
4050;DHT22;2039;50.894;6.888;2023-01-01T09:15:38;14.20;59.00
4050;DHT22;2039;50.894;6.888;2023-01-01T09:18:04;14.20;62.10
4050;DHT22;2039;50.894;6.888;2023-01-01T09:20:29;14.20;59.60
4050;DHT22;2039;50.894;6.888;2023-01-01T09:22:55;14.20;59.80
4050;DHT22;2039;50.894;6.888;2023-01-01T09:25:21;14.20;62.70
4050;DHT22;2039;50.894;6.888;2023-01-01T09:27:47;14.20;63.10
4050;DHT22;2039;50.894;6.888;2023-01-01T09:30:13;14.30;56.50
4050;DHT22;2039;50.894;6.888;2023-01-01T09:32:38;14.30;57.50
4050;DHT22;2039;50.894;6.888;2023-01-01T09:35:05;14.30;57.80
4050;DHT22;2039;50.894;6.888;2023-01-01T09:37:31;14.30;57.80
4050;DHT22;2039;50.894;6.888;2023-01-01T09:39:56;14.40;57.70
4050;DHT22;2039;50.894;6.888;2023-01-01T09:45:25;14.40;56.40
4050;DHT22;2039;50.894;6.888;2023-01-01T09:48:07;14.50;53.40
4050;DHT22;2039;50.894;6.888;2023-01-01T09:50:41;14.50;51.50
4050;DHT22;2039;50.894;6.888;2023-01-01T09:53:29;14.50;52.60
4050;DHT22;2039;50.894;6.888;2023-01-01T09:56:00;14.50;54.20
4050;DHT22;2039;50.894;6.888;2023-01-01T09:58:31;14.50;48.20
4050;DHT22;2039;50.894;6.888;2023-01-01T10:01:27;14.60;51.50
4050;DHT22;2039;50.894;6.888;2023-01-01T10:06:33;14.70;47.30
4050;DHT22;2039;50.894;6.888;2023-01-01T10:12:02;14.60;48.30
4050;DHT22;2039;50.894;6.888;2023-01-01T10:14:39;14.70;52.40
4050;DHT22;2039;50.894;6.888;2023-01-01T10:17:21;14.70;52.10
4050;DHT22;2039;50.894;6.888;2023-01-01T10:19:57;14.60;52.10
4050;DHT22;2039;50.894;6.888;2023-01-01T10:22:34;14.60;54.50
4050;DHT22;2039;50.894;6.888;2023-01-01T10:27:51;14.60;52.90
4050;DHT22;2039;50.894;6.888;2023-01-01T10:30:21;14.60;52.50
4050;DHT22;2039;50.894;6.888;2023-01-01T10:32:51;14.60;51.80
4050;DHT22;2039;50.894;6.888;2023-01-01T10:35:20;14.60;51.10
4050;DHT22;2039;50.894;6.888;2023-01-01T10:37:48;14.60;51.90
4050;DHT22;2039;50.894;6.888;2023-01-01T10:40:19;14.60;53.80
4050;DHT22;2039;50.894;6.888;2023-01-01T10:42:50;14.60;54.20
4050;DHT22;2039;50.894;6.888;2023-01-01T10:45:23;14.60;55.70
4050;DHT22;2039;50.894;6.888;2023-01-01T10:50:54;14.60;58.00
4050;DHT22;2039;50.894;6.888;2023-01-01T10:56:00;14.60;57.50
4050;DHT22;2039;50.894;6.888;2023-01-01T10:58:47;14.70;57.00
4050;DHT22;2039;50.894;6.888;2023-01-01T11:06:22;14.70;57.70
4050;DHT22;2039;50.894;6.888;2023-01-01T11:08:51;14.60;56.00
4050;DHT22;2039;50.894;6.888;2023-01-01T11:13:52;14.60;53.50
4050;DHT22;2039;50.894;6.888;2023-01-01T11:16:18;14.60;55.00
4050;DHT22;2039;50.894;6.888;2023-01-01T11:18:44;14.50;55.90
4050;DHT22;2039;50.894;6.888;2023-01-01T11:21:18;14.60;57.30
4050;DHT22;2039;50.894;6.888;2023-01-01T11:23:45;14.50;52.80
4050;DHT22;2039;50.894;6.888;2023-01-01T11:28:37;14.60;54.60
4050;DHT22;2039;50.894;6.888;2023-01-01T11:31:10;14.60;52.10
4050;DHT22;2039;50.894;6.888;2023-01-01T11:33:47;14.60;51.90
4050;DHT22;2039;50.894;6.888;2023-01-01T11:36:28;14.50;57.10
4050;DHT22;2039;50.894;6.888;2023-01-01T11:39:07;14.60;54.70
4050;DHT22;2039;50.894;6.888;2023-01-01T11:41:49;14.50;56.20
4050;DHT22;2039;50.894;6.888;2023-01-01T11:46:56;14.50;55.40
4050;DHT22;2039;50.894;6.888;2023-01-01T11:49:25;14.50;53.30
4050;DHT22;2039;50.894;6.888;2023-01-01T11:51:52;14.50;56.70
4050;DHT22;2039;50.894;6.888;2023-01-01T11:54:31;14.60;57.80
4050;DHT22;2039;50.894;6.888;2023-01-01T11:57:15;14.60;53.90
4050;DHT22;2039;50.894;6.888;2023-01-01T11:59:49;14.60;51.90
4050;DHT22;2039;50.894;6.888;2023-01-01T12:02:34;14.50;54.50
4050;DHT22;2039;50.894;6.888;2023-01-01T12:05:19;14.60;52.20
4050;DHT22;2039;50.894;6.888;2023-01-01T12:07:47;14.60;52.10
4050;DHT22;2039;50.894;6.888;2023-01-01T12:12:47;14.60;49.10
4050;DHT22;2039;50.894;6.888;2023-01-01T12:20:41;14.50;49.00
4050;DHT22;2039;50.894;6.888;2023-01-01T12:23:10;14.50;46.90
4050;DHT22;2039;50.894;6.888;2023-01-01T12:25:40;14.50;45.40
4050;DHT22;2039;50.894;6.888;2023-01-01T12:28:19;14.60;45.80
4050;DHT22;2039;50.894;6.888;2023-01-01T12:42:39;14.80;37.30
4050;DHT22;2039;50.894;6.888;2023-01-01T12:48:41;14.80;37.90
4050;DHT22;2039;50.894;6.888;2023-01-01T12:54:02;14.80;38.40
4050;DHT22;2039;50.894;6.888;2023-01-01T12:59:11;14.70;34.80
4050;DHT22;2039;50.894;6.888;2023-01-01T13:01:39;14.60;32.40
4050;DHT22;2039;50.894;6.888;2023-01-01T13:04:18;14.60;34.80
4050;DHT22;2039;50.894;6.888;2023-01-01T13:06:51;14.60;33.20
4050;DHT22;2039;50.894;6.888;2023-01-01T13:09:23;14.60;35.50
4050;DHT22;2039;50.894;6.888;2023-01-01T13:12:03;14.70;32.40
4050;DHT22;2039;50.894;6.888;2023-01-01T13:14:35;14.70;26.30
4050;DHT22;2039;50.894;6.888;2023-01-01T13:17:01;14.60;26.10
4050;DHT22;2039;50.894;6.888;2023-01-01T13:19:32;14.60;27.30
4050;DHT22;2039;50.894;6.888;2023-01-01T13:22:27;14.50;23.80
4050;DHT22;2039;50.894;6.888;2023-01-01T13:33:30;14.50;19.20
4050;DHT22;2039;50.894;6.888;2023-01-01T13:44:09;14.50;16.00
4050;DHT22;2039;50.894;6.888;2023-01-01T13:54:55;14.60;15.90
4050;DHT22;2039;50.894;6.888;2023-01-01T13:58:04;14.60;17.40
4050;DHT22;2039;50.894;6.888;2023-01-01T14:03:25;14.50;12.70
4050;DHT22;2039;50.894;6.888;2023-01-01T14:05:55;14.60;15.00
4050;DHT22;2039;50.894;6.888;2023-01-01T14:08:33;14.60;15.40
4050;DHT22;2039;50.894;6.888;2023-01-01T14:11:00;14.60;15.20
4050;DHT22;2039;50.894;6.888;2023-01-01T14:13:38;14.60;15.50
4050;DHT22;2039;50.894;6.888;2023-01-01T14:16:07;14.60;15.80
4050;DHT22;2039;50.894;6.888;2023-01-01T14:18:48;14.60;14.90
4050;DHT22;2039;50.894;6.888;2023-01-01T14:21:26;14.50;12.60
4050;DHT22;2039;50.894;6.888;2023-01-01T14:23:56;14.50;14.50
4050;DHT22;2039;50.894;6.888;2023-01-01T14:26:24;14.50;16.80
4050;DHT22;2039;50.894;6.888;2023-01-01T14:28:58;14.50;14.40
4050;DHT22;2039;50.894;6.888;2023-01-01T14:31:39;14.50;16.40
4050;DHT22;2039;50.894;6.888;2023-01-01T14:34:35;14.50;15.40
4050;DHT22;2039;50.894;6.888;2023-01-01T14:37:02;14.50;16.10
4050;DHT22;2039;50.894;6.888;2023-01-01T14:39:34;14.40;15.50
4050;DHT22;2039;50.894;6.888;2023-01-01T14:42:12;14.40;19.70
4050;DHT22;2039;50.894;6.888;2023-01-01T14:44:42;14.30;24.90
4050;DHT22;2039;50.894;6.888;2023-01-01T14:50:00;14.30;25.80
4050;DHT22;2039;50.894;6.888;2023-01-01T14:52:28;14.20;26.10
4050;DHT22;2039;50.894;6.888;2023-01-01T14:54:57;14.20;29.70
4050;DHT22;2039;50.894;6.888;2023-01-01T14:57:26;14.20;32.40
4050;DHT22;2039;50.894;6.888;2023-01-01T14:59:53;14.20;33.20
4050;DHT22;2039;50.894;6.888;2023-01-01T15:02:23;14.10;38.90
4050;DHT22;2039;50.894;6.888;2023-01-01T15:04:52;14.20;37.20
4050;DHT22;2039;50.894;6.888;2023-01-01T15:07:29;14.10;41.10
4050;DHT22;2039;50.894;6.888;2023-01-01T15:09:59;14.10;46.60
4050;DHT22;2039;50.894;6.888;2023-01-01T15:12:28;14.10;52.70
4050;DHT22;2039;50.894;6.888;2023-01-01T15:14:55;14.00;57.90
4050;DHT22;2039;50.894;6.888;2023-01-01T15:17:26;14.00;61.90
4050;DHT22;2039;50.894;6.888;2023-01-01T15:20:04;13.90;74.20
4050;DHT22;2039;50.894;6.888;2023-01-01T15:22:35;13.80;78.80
4050;DHT22;2039;50.894;6.888;2023-01-01T15:25:04;13.80;91.00
4050;DHT22;2039;50.894;6.888;2023-01-01T15:27:34;13.80;94.90
4050;DHT22;2039;50.894;6.888;2023-01-01T15:30:03;13.70;98.00
4050;DHT22;2039;50.894;6.888;2023-01-01T15:32:34;13.60;99.90
4050;DHT22;2039;50.894;6.888;2023-01-01T15:35:20;13.70;99.90
4050;DHT22;2039;50.894;6.888;2023-01-01T15:37:52;13.60;99.90
4050;DHT22;2039;50.894;6.888;2023-01-01T15:45:29;13.50;99.90
4050;DHT22;2039;50.894;6.888;2023-01-01T15:48:34;13.40;99.90
4050;DHT22;2039;50.894;6.888;2023-01-01T15:51:22;13.40;99.90
4050;DHT22;2039;50.894;6.888;2023-01-01T15:56:29;13.20;99.90
4050;DHT22;2039;50.894;6.888;2023-01-01T15:59:13;13.20;99.90
4050;DHT22;2039;50.894;6.888;2023-01-01T16:01:42;13.20;99.90
4050;DHT22;2039;50.894;6.888;2023-01-01T16:04:16;13.30;99.90
4050;DHT22;2039;50.894;6.888;2023-01-01T16:09:32;13.20;99.90
4050;DHT22;2039;50.894;6.888;2023-01-01T16:12:00;13.20;99.90
4050;DHT22;2039;50.894;6.888;2023-01-01T16:14:26;13.10;99.90
4050;DHT22;2039;50.894;6.888;2023-01-01T16:16:56;13.10;99.90
4050;DHT22;2039;50.894;6.888;2023-01-01T16:19:25;13.10;99.90
4050;DHT22;2039;50.894;6.888;2023-01-01T16:21:51;13.00;99.90
4050;DHT22;2039;50.894;6.888;2023-01-01T16:24:17;13.00;99.90
4050;DHT22;2039;50.894;6.888;2023-01-01T16:26:43;12.90;99.90
4050;DHT22;2039;50.894;6.888;2023-01-01T16:29:09;12.90;99.90
4050;DHT22;2039;50.894;6.888;2023-01-01T16:31:35;12.90;99.90
4050;DHT22;2039;50.894;6.888;2023-01-01T16:34:01;12.90;99.90
4050;DHT22;2039;50.894;6.888;2023-01-01T16:36:27;12.90;99.90
4050;DHT22;2039;50.894;6.888;2023-01-01T16:38:54;12.90;99.90
4050;DHT22;2039;50.894;6.888;2023-01-01T16:41:20;12.90;99.90
4050;DHT22;2039;50.894;6.888;2023-01-01T16:43:47;12.90;99.90
4050;DHT22;2039;50.894;6.888;2023-01-01T16:46:13;12.80;99.90
4050;DHT22;2039;50.894;6.888;2023-01-01T16:48:40;12.80;99.90
4050;DHT22;2039;50.894;6.888;2023-01-01T16:51:09;12.80;99.90
4050;DHT22;2039;50.894;6.888;2023-01-01T16:53:38;12.80;99.90
4050;DHT22;2039;50.894;6.888;2023-01-01T16:56:07;12.70;99.90
4050;DHT22;2039;50.894;6.888;2023-01-01T16:58:34;12.80;99.90
4050;DHT22;2039;50.894;6.888;2023-01-01T17:01:00;12.70;99.90
4050;DHT22;2039;50.894;6.888;2023-01-01T17:03:26;12.80;99.90
4050;DHT22;2039;50.894;6.888;2023-01-01T17:05:52;12.80;99.90
4050;DHT22;2039;50.894;6.888;2023-01-01T17:08:18;12.70;99.90
4050;DHT22;2039;50.894;6.888;2023-01-01T17:10:43;12.70;99.90
4050;DHT22;2039;50.894;6.888;2023-01-01T17:13:09;12.80;99.90
4050;DHT22;2039;50.894;6.888;2023-01-01T17:15:37;12.70;99.90
4050;DHT22;2039;50.894;6.888;2023-01-01T17:18:08;12.60;99.90
4050;DHT22;2039;50.894;6.888;2023-01-01T17:20:35;12.60;99.90
4050;DHT22;2039;50.894;6.888;2023-01-01T17:23:01;12.60;99.90
4050;DHT22;2039;50.894;6.888;2023-01-01T17:25:26;12.60;99.90
4050;DHT22;2039;50.894;6.888;2023-01-01T17:27:52;12.50;99.90
4050;DHT22;2039;50.894;6.888;2023-01-01T17:30:18;12.50;99.90
4050;DHT22;2039;50.894;6.888;2023-01-01T17:32:43;12.60;99.90
4050;DHT22;2039;50.894;6.888;2023-01-01T17:35:09;12.60;99.90
4050;DHT22;2039;50.894;6.888;2023-01-01T17:37:35;12.50;99.90
4050;DHT22;2039;50.894;6.888;2023-01-01T17:40:00;12.50;99.90
4050;DHT22;2039;50.894;6.888;2023-01-01T17:42:26;12.50;99.90
4050;DHT22;2039;50.894;6.888;2023-01-01T17:44:52;12.50;99.90
4050;DHT22;2039;50.894;6.888;2023-01-01T17:47:29;12.50;99.90
4050;DHT22;2039;50.894;6.888;2023-01-01T17:49:57;12.30;99.90
4050;DHT22;2039;50.894;6.888;2023-01-01T17:52:29;12.20;99.90
4050;DHT22;2039;50.894;6.888;2023-01-01T17:54:54;12.20;99.90
4050;DHT22;2039;50.894;6.888;2023-01-01T17:57:23;12.30;99.90
4050;DHT22;2039;50.894;6.888;2023-01-01T17:59:49;12.40;99.90
4050;DHT22;2039;50.894;6.888;2023-01-01T18:02:15;12.40;99.90
4050;DHT22;2039;50.894;6.888;2023-01-01T18:04:41;12.40;99.90
4050;DHT22;2039;50.894;6.888;2023-01-01T18:07:06;12.30;99.90
4050;DHT22;2039;50.894;6.888;2023-01-01T18:09:32;12.30;99.90
4050;DHT22;2039;50.894;6.888;2023-01-01T18:11:58;12.30;99.90
4050;DHT22;2039;50.894;6.888;2023-01-01T18:14:24;12.30;99.90
4050;DHT22;2039;50.894;6.888;2023-01-01T18:16:49;12.20;99.90
4050;DHT22;2039;50.894;6.888;2023-01-01T18:19:15;12.30;99.90
4050;DHT22;2039;50.894;6.888;2023-01-01T18:21:41;12.30;99.90
4050;DHT22;2039;50.894;6.888;2023-01-01T18:24:12;12.20;99.90
4050;DHT22;2039;50.894;6.888;2023-01-01T18:26:38;12.20;99.90
4050;DHT22;2039;50.894;6.888;2023-01-01T18:29:04;12.20;99.90
4050;DHT22;2039;50.894;6.888;2023-01-01T18:31:32;12.20;99.90
4050;DHT22;2039;50.894;6.888;2023-01-01T18:33:59;12.20;99.90
4050;DHT22;2039;50.894;6.888;2023-01-01T18:36:28;12.20;99.90
4050;DHT22;2039;50.894;6.888;2023-01-01T18:39:16;12.20;99.90
4050;DHT22;2039;50.894;6.888;2023-01-01T18:44:19;12.20;99.90
4050;DHT22;2039;50.894;6.888;2023-01-01T18:49:29;12.10;99.90
4050;DHT22;2039;50.894;6.888;2023-01-01T18:54:26;12.00;99.90